Time;durP1;ratioP1;P1;durP2;ratioP2;P2;SDS_P1;SDS_P2;PMS_P1;PMS_P2;Temp;Humidity;BMP_temperature;BMP_pressure;BME280_temperature;BME280_humidity;BME280_pressure;Samples;Min_cycle;Max_cycle;Signal;HPM_P1;HPM_P2
2023/03/18 00:01:38;;;;;;;2.97;1.88;;;11.90;99.90;;;11.94;100.00;100333.97;5141591;28;20051;-71
2023/03/18 00:04:11;;;;;;;5.18;2.10;;;11.90;99.90;;;11.91;100.00;100321.69;5132436;28;20048;-71
2023/03/18 00:06:44;;;;;;;5.43;2.30;;;11.90;99.90;;;11.86;100.00;100322.44;5141455;28;20050;-69
2023/03/18 00:09:17;;;;;;;3.70;1.90;;;11.80;99.90;;;11.84;100.00;100330.25;5139532;28;20047;-71
2023/03/18 00:11:49;;;;;;;5.13;2.20;;;11.80;99.90;;;11.83;100.00;100338.94;5124316;28;20054;-70
2023/03/18 00:14:22;;;;;;;6.60;2.20;;;11.80;99.90;;;11.82;100.00;100336.31;5130768;28;20492;-70
2023/03/18 00:16:54;;;;;;;8.27;3.70;;;11.80;99.90;;;11.82;100.00;100346.75;5131053;28;20039;-70
2023/03/18 00:19:26;;;;;;;5.28;2.10;;;11.80;99.90;;;11.83;100.00;100348.50;5126385;28;20043;-70
2023/03/18 00:22:00;;;;;;;4.43;2.00;;;11.80;99.90;;;11.86;100.00;100349.44;5130658;28;20039;-70
2023/03/18 00:24:32;;;;;;;4.15;2.00;;;11.80;99.90;;;11.90;100.00;100353.00;5139225;28;20039;-70
2023/03/18 00:27:05;;;;;;;6.07;1.80;;;11.80;99.90;;;11.92;100.00;100353.91;5142474;28;20039;-71
2023/03/18 00:29:38;;;;;;;6.20;2.38;;;11.80;99.90;;;11.91;100.00;100339.09;5149346;28;20047;-70
2023/03/18 00:32:13;;;;;;;3.92;2.08;;;11.80;99.90;;;11.91;100.00;100339.09;5129505;28;20070;-72
2023/03/18 00:34:45;;;;;;;5.57;2.53;;;11.80;99.90;;;11.89;100.00;100338.19;5133698;28;20054;-70
2023/03/18 00:37:29;;;;;;;5.55;2.33;;;11.80;99.90;;;11.89;100.00;100339.06;5141493;28;20050;-70
2023/03/18 00:40:05;;;;;;;7.95;2.60;;;11.80;99.90;;;11.89;100.00;100333.84;5129841;28;20098;-70
2023/03/18 00:42:46;;;;;;;6.57;2.65;;;11.80;99.90;;;11.91;100.00;100331.28;5139003;28;20047;-70
2023/03/18 00:45:18;;;;;;;3.33;1.92;;;11.80;99.90;;;11.92;100.00;100328.69;5121179;28;20051;-70
2023/03/18 00:47:51;;;;;;;8.77;2.40;;;11.80;99.90;;;11.91;100.00;100329.53;5134554;28;20054;-69
2023/03/18 00:50:26;;;;;;;4.03;2.20;;;11.90;99.90;;;11.94;100.00;100344.41;5137270;28;20681;-70
2023/03/18 00:53:00;;;;;;;5.68;2.00;;;11.90;99.90;;;11.97;100.00;100348.81;5138478;28;20301;-70
2023/03/18 00:55:32;;;;;;;4.93;2.00;;;11.90;99.90;;;12.00;100.00;100352.38;5134751;28;20047;-70
2023/03/18 00:58:04;;;;;;;4.78;2.00;;;11.90;99.90;;;12.02;100.00;100363.75;5125231;28;20061;-70
2023/03/18 01:00:38;;;;;;;4.22;2.28;;;11.90;99.90;;;12.02;100.00;100353.28;5134078;28;20061;-70
2023/03/18 01:03:11;;;;;;;5.97;2.45;;;11.90;99.90;;;12.01;100.00;100356.75;5130483;28;20051;-70
2023/03/18 01:05:44;;;;;;;3.55;1.83;;;11.90;99.90;;;12.01;100.00;100350.66;5156480;28;20123;-70
2023/03/18 01:08:18;;;;;;;6.93;2.50;;;11.90;99.90;;;12.01;100.00;100348.91;5133244;28;20070;-70
2023/03/18 01:10:50;;;;;;;3.63;1.77;;;11.90;99.90;;;12.01;100.00;100338.47;5126150;28;20078;-70
2023/03/18 01:13:24;;;;;;;6.30;2.42;;;11.90;99.90;;;11.98;100.00;100338.38;5136739;28;20435;-70
2023/03/18 01:15:56;;;;;;;3.38;2.20;;;11.90;99.90;;;11.98;100.00;100341.00;5120877;28;20400;-70
2023/03/18 01:18:30;;;;;;;6.50;2.35;;;11.90;99.90;;;12.02;100.00;100340.22;5129506;28;20081;-69
2023/03/18 01:21:02;;;;;;;6.25;2.00;;;11.90;99.90;;;12.02;100.00;100323.69;5126846;28;20403;-70
2023/03/18 01:23:41;;;;;;;4.43;2.25;;;11.90;99.90;;;12.00;100.00;100336.72;5136525;28;20047;-70
2023/03/18 01:26:13;;;;;;;5.05;2.25;;;11.90;99.90;;;11.98;100.00;100338.38;5125836;28;20051;-69
2023/03/18 01:28:49;;;;;;;5.72;2.35;;;11.90;99.90;;;11.96;100.00;100340.09;5131547;28;20127;-70
2023/03/18 01:31:23;;;;;;;6.20;2.47;;;11.90;99.90;;;11.96;100.00;100334.88;5146685;28;20047;-70
2023/03/18 01:33:55;;;;;;;4.32;1.83;;;11.90;99.90;;;11.94;100.00;100333.97;5127422;28;20058;-70
2023/03/18 01:36:28;;;;;;;5.20;2.30;;;11.90;99.90;;;11.93;100.00;100340.00;5133475;28;20058;-70
2023/03/18 01:39:14;;;;;;;5.63;2.10;;;11.90;99.90;;;11.92;100.00;100333.03;5133042;28;20055;-70
2023/03/18 01:41:47;;;;;;;4.10;2.05;;;11.90;99.90;;;11.90;100.00;100334.72;5152253;28;20051;-70
2023/03/18 01:44:24;;;;;;;4.93;2.38;;;11.80;99.90;;;11.90;100.00;100345.19;5126919;28;20320;-70
2023/03/18 01:46:59;;;;;;;;;;;11.80;99.90;;;11.88;100.00;100336.44;5124668;28;20051;-69
2023/03/18 01:49:36;;;;;;;5.35;2.33;;;11.80;99.90;;;11.87;100.00;100321.63;5133256;28;19929;-70
2023/03/18 01:52:14;;;;;;;6.72;2.83;;;11.80;99.90;;;11.77;100.00;100317.88;5136018;28;20078;-71
2023/03/18 01:54:56;;;;;;;6.32;2.80;;;11.80;99.90;;;11.72;100.00;100313.41;5139433;28;20043;-71
2023/03/18 01:57:31;;;;;;;7.05;3.00;;;11.70;99.90;;;11.66;100.00;100307.19;5133467;28;20043;-72
2023/03/18 02:00:09;;;;;;;5.65;2.85;;;11.70;99.90;;;11.63;100.00;100308.84;5142103;28;20512;-71
2023/03/18 02:02:52;;;;;;;7.15;3.20;;;11.70;99.90;;;11.57;100.00;100313.94;5143275;28;20110;-72
2023/03/18 02:05:27;;;;;;;5.13;2.45;;;11.60;99.90;;;11.57;100.00;100317.44;5142418;28;20050;-72
2023/03/18 02:07:59;;;;;;;5.75;2.35;;;11.60;99.90;;;11.61;100.00;100326.22;5143662;28;20077;-70
2023/03/18 02:10:33;;;;;;;5.95;2.47;;;11.60;99.90;;;11.63;100.00;100306.25;5145631;28;20057;-69
2023/03/18 02:13:11;;;;;;;5.20;2.75;;;11.60;99.90;;;11.57;100.00;100295.66;5137897;28;20038;-71
2023/03/18 02:15:52;;;;;;;9.30;3.40;;;11.60;99.90;;;11.55;100.00;100306.06;5136900;28;20039;-74
2023/03/18 02:18:30;;;;;;;6.00;2.72;;;11.50;99.90;;;11.56;100.00;100291.28;5146908;28;20043;-72
2023/03/18 02:21:19;;;;;;;5.13;2.45;;;11.50;99.90;;;11.60;100.00;100300.94;5147052;28;20041;-72
2023/03/18 02:24:08;;;;;;;4.93;2.70;;;11.60;99.90;;;11.61;100.00;100306.22;5145728;28;20038;-71
2023/03/18 02:26:50;;;;;;;6.70;2.90;;;11.60;99.90;;;11.63;100.00;100309.75;5147013;28;20581;-70
2023/03/18 02:29:35;;;;;;;5.55;2.72;;;11.50;99.90;;;11.65;100.00;100305.41;5161815;28;20043;-72
2023/03/18 02:32:11;;;;;;;7.55;2.85;;;11.60;99.90;;;11.65;100.00;100296.72;5145606;28;20046;-71
2023/03/18 02:34:45;;;;;;;5.18;2.45;;;11.60;99.90;;;11.65;100.00;100301.94;5145152;28;20137;-71
2023/03/18 02:37:17;;;;;;;7.10;2.80;;;11.60;99.90;;;11.63;100.00;100299.28;5145997;28;20054;-72
2023/03/18 02:39:50;;;;;;;7.00;2.53;;;11.60;99.90;;;11.63;100.00;100304.50;5145172;28;20475;-73
2023/03/18 02:42:29;;;;;;;6.20;3.40;;;11.60;99.90;;;11.62;100.00;100300.16;5137482;28;20039;-72
2023/03/18 02:45:06;;;;;;;5.53;2.75;;;11.60;99.90;;;11.60;100.00;100309.66;5145279;28;20042;-73
2023/03/18 02:47:48;;;;;;;8.95;3.05;;;11.60;99.90;;;11.56;100.00;100307.84;5145728;28;20047;-72
2023/03/18 02:50:21;;;;;;;7.93;2.92;;;11.50;99.90;;;11.56;100.00;100315.66;5145071;28;20053;-72
2023/03/18 02:52:53;;;;;;;5.28;2.78;;;11.50;99.90;;;11.55;100.00;100306.06;5141508;28;20630;-74
2023/03/18 02:55:28;;;;;;;4.80;2.53;;;11.50;99.90;;;11.57;100.00;100303.50;5141805;28;20051;-71
2023/03/18 02:58:00;;;;;;;6.25;2.55;;;11.50;99.90;;;11.57;100.00;100308.72;5145147;28;20057;-71
2023/03/18 03:00:35;;;;;;;5.32;2.83;;;11.50;99.90;;;11.55;100.00;100308.69;5145221;28;20054;-71
2023/03/18 03:03:07;;;;;;;5.88;2.95;;;11.50;99.90;;;11.52;100.00;100302.50;5145977;28;20038;-72
2023/03/18 03:05:39;;;;;;;7.05;3.63;;;11.50;99.90;;;11.45;100.00;100295.38;5146218;28;20058;-72
2023/03/18 03:08:12;;;;;;;6.50;3.22;;;11.40;99.90;;;11.41;100.00;100307.50;5144907;28;20439;-69
2023/03/18 03:10:49;;;;;;;8.70;3.58;;;11.30;99.90;;;11.38;100.00;100313.50;5145813;28;20081;-72
2023/03/18 03:13:23;;;;;;;7.68;2.92;;;11.40;99.90;;;11.36;100.00;100315.19;5146172;28;20570;-71
2023/03/18 03:15:58;;;;;;;5.97;2.75;;;11.30;99.90;;;11.35;100.00;100317.78;5146194;28;20097;-71
2023/03/18 03:18:30;;;;;;;5.15;2.70;;;11.30;99.90;;;11.34;100.00;100323.81;5144992;28;20411;-73
2023/03/18 03:21:02;;;;;;;5.38;2.90;;;11.30;99.90;;;11.32;100.00;100323.78;5147012;28;20057;-71
2023/03/18 03:23:34;;;;;;;7.57;3.33;;;11.20;99.90;;;11.27;100.00;100334.94;5145468;28;20141;-72
2023/03/18 03:26:07;;;;;;;6.10;2.97;;;11.20;99.90;;;11.25;100.00;100336.66;5146960;28;20039;-71
2023/03/18 03:28:39;;;;;;;5.95;2.55;;;11.20;99.90;;;11.21;100.00;100340.91;5145651;28;20130;-72
2023/03/18 03:31:13;;;;;;;5.20;2.63;;;11.20;99.90;;;11.17;100.00;100348.63;5145994;28;20074;-71
2023/03/18 03:33:45;;;;;;;4.45;2.40;;;11.10;99.90;;;11.10;100.00;100345.88;5144397;28;20105;-70
2023/03/18 03:36:18;;;;;;;5.75;2.65;;;11.00;99.90;;;11.07;100.00;100343.16;5144269;28;20508;-72
2023/03/18 03:38:50;;;;;;;5.30;2.67;;;11.00;99.90;;;11.04;100.00;100348.31;5144155;28;20086;-73
2023/03/18 03:41:22;;;;;;;4.40;2.50;;;11.00;99.90;;;10.99;100.00;100344.69;5152490;28;20133;-73
2023/03/18 03:43:55;;;;;;;3.55;2.13;;;10.90;99.90;;;10.96;100.00;100355.06;5137613;28;20070;-72
2023/03/18 03:46:28;;;;;;;5.30;2.50;;;10.90;99.90;;;10.92;100.00;100350.59;5145313;28;20043;-71
2023/03/18 03:49:00;;;;;;;3.80;2.08;;;10.80;99.90;;;10.84;100.00;100353.00;5144050;28;20058;-73
2023/03/18 03:51:32;;;;;;;3.67;2.20;;;10.70;99.90;;;10.81;100.00;100359.84;5144248;28;20145;-72
2023/03/18 03:54:05;;;;;;;4.00;2.00;;;10.70;99.90;;;10.75;100.00;100364.91;5144033;28;20101;-71
2023/03/18 03:56:37;;;;;;;5.15;2.17;;;10.70;99.90;;;10.69;100.00;100367.34;5159869;28;20047;-71
2023/03/18 03:59:10;;;;;;;6.10;2.75;;;10.60;99.90;;;10.64;100.00;100361.13;5143880;28;20066;-71
2023/03/18 04:02:02;;;;;;;6.75;3.33;;;10.50;99.90;;;10.57;100.00;100368.78;5145295;28;20051;-73
2023/03/18 04:04:35;;;;;;;5.88;3.22;;;10.50;99.90;;;10.54;100.00;100366.06;5144935;28;20130;-71
2023/03/18 04:07:07;;;;;;;8.73;3.38;;;10.50;99.90;;;10.52;100.00;100372.09;5143765;28;20047;-72
2023/03/18 04:09:40;;;;;;;6.88;3.08;;;10.50;99.90;;;10.51;100.00;100379.03;5143743;28;20181;-70
2023/03/18 04:12:13;;;;;;;6.50;2.60;;;10.50;99.90;;;10.50;100.00;100371.19;5143434;28;20137;-69
2023/03/18 04:14:46;;;;;;;4.38;2.25;;;10.50;99.90;;;10.48;100.00;100385.88;5143722;28;20533;-71
2023/03/18 04:17:20;;;;;;;7.43;3.28;;;10.40;99.90;;;10.44;100.00;100374.50;5145096;28;20053;-71
2023/03/18 04:19:52;;;;;;;8.05;2.83;;;10.40;99.90;;;10.42;100.00;100376.16;5143732;28;20660;-72
2023/03/18 04:22:25;;;;;;;6.70;2.95;;;10.40;99.90;;;10.42;100.00;100376.16;5144597;28;20038;-71
2023/03/18 04:24:57;;;;;;;5.35;2.35;;;10.40;99.90;;;10.42;100.00;100389.19;5143483;28;20040;-71
2023/03/18 04:27:31;;;;;;;5.15;2.40;;;10.40;99.90;;;10.41;100.00;100395.22;5143654;28;20106;-71
2023/03/18 04:30:09;;;;;;;4.40;2.20;;;10.40;99.90;;;10.35;100.00;100397.66;5143117;28;20042;-71
2023/03/18 04:32:52;;;;;;;4.32;2.05;;;10.30;99.90;;;10.29;100.00;100394.88;5143283;28;20047;-72
2023/03/18 04:35:24;;;;;;;4.10;2.13;;;10.20;99.90;;;10.23;100.00;100394.69;5143127;28;20042;-72
2023/03/18 04:37:56;;;;;;;3.90;2.03;;;10.20;99.90;;;10.17;100.00;100394.47;5144407;28;20039;-71
2023/03/18 04:40:29;;;;;;;3.83;2.13;;;10.10;99.90;;;10.15;100.00;100401.34;5143229;28;20061;-72
2023/03/18 04:43:02;;;;;;;3.95;1.92;;;10.10;99.90;;;10.14;100.00;100412.63;5144594;28;20118;-71
2023/03/18 04:45:35;;;;;;;4.65;2.33;;;10.00;99.90;;;10.04;100.00;100409.75;5143325;28;20043;-72
2023/03/18 04:48:10;;;;;;;4.65;2.67;;;10.00;99.90;;;9.98;100.00;100419.97;5142945;28;20057;-70
2023/03/18 04:50:45;;;;;;;4.07;2.20;;;9.90;99.90;;;9.94;100.00;100412.00;5143295;28;20050;-73
2023/03/18 04:53:24;;;;;;;3.45;2.22;;;9.90;99.90;;;9.91;100.00;100417.09;5142947;28;20133;-69
2023/03/18 04:55:58;;;;;;;5.40;2.75;;;9.80;99.90;;;9.90;100.00;100416.22;5143090;28;20047;-69
2023/03/18 04:58:38;;;;;;;5.55;3.13;;;9.80;99.90;;;9.89;100.00;100408.38;5155370;28;20047;-70
2023/03/18 05:01:16;;;;;;;5.53;2.85;;;9.80;99.90;;;9.90;100.00;100405.81;5137482;28;20086;-71
2023/03/18 05:03:50;;;;;;;5.40;2.80;;;9.80;99.90;;;9.90;100.00;100408.41;5143990;28;20435;-71
2023/03/18 05:06:27;;;;;;;5.30;2.10;;;9.80;99.90;;;9.89;100.00;100414.47;5142875;28;20047;-72
2023/03/18 05:09:05;;;;;;;3.20;2.00;;;9.80;99.90;;;9.88;100.00;100412.69;5142889;28;20050;-73
2023/03/18 05:11:39;;;;;;;3.60;2.20;;;9.80;99.90;;;9.84;100.00;100417.75;5142452;28;20515;-70
2023/03/18 05:14:28;;;;;;;3.80;2.00;;;9.80;99.90;;;9.76;100.00;100421.00;5142503;28;20050;-71
2023/03/18 05:17:02;;;;;;;3.35;1.98;;;9.70;99.90;;;9.72;100.00;100420.88;5142460;28;20049;-71
2023/03/18 05:19:37;;;;;;;3.92;2.25;;;9.60;99.90;;;9.67;100.00;100422.44;5142647;28;20114;-74
2023/03/18 05:22:21;;;;;;;3.30;2.20;;;9.60;99.90;;;9.67;100.00;100417.22;5142694;28;20057;-71
2023/03/18 05:24:58;;;;;;;4.45;2.60;;;9.60;99.90;;;9.67;100.00;100431.13;5142511;28;20411;-73
2023/03/18 05:27:33;;;;;;;6.28;2.65;;;9.60;99.90;;;9.70;100.00;100427.72;5146131;28;20732;-71
2023/03/18 05:30:12;;;;;;;3.65;2.17;;;9.60;99.90;;;9.67;100.00;100427.63;5142479;28;20051;-72
2023/03/18 05:32:48;;;;;;;4.28;2.60;;;9.60;99.90;;;9.68;100.00;100424.19;5142428;28;20445;-72
2023/03/18 05:35:23;;;;;;;5.03;2.50;;;9.60;99.90;;;9.70;100.00;100422.50;5142361;28;20057;-71
2023/03/18 05:37:58;;;;;;;4.35;2.38;;;9.70;99.90;;;9.71;100.00;100426.88;5142211;28;20078;-71
2023/03/18 05:40:30;;;;;;;3.90;2.10;;;9.60;99.90;;;9.73;100.00;100423.50;5143690;28;20070;-71
2023/03/18 05:43:34;;;;;;;3.45;1.83;;;9.70;99.90;;;9.73;100.00;100422.63;5139093;28;20058;-71
2023/03/18 05:46:07;;;;;;;4.50;2.20;;;9.60;99.90;;;9.73;100.00;100431.31;5146655;28;20117;-72
2023/03/18 05:48:58;;;;;;;3.65;1.70;;;9.60;99.90;;;9.75;100.00;100420.94;5146193;28;20055;-69
2023/03/18 05:51:38;;;;;;;4.53;2.35;;;9.60;99.90;;;9.81;100.00;100425.47;5248452;23;20046;-78
2023/03/18 05:54:12;;;;;;;4.78;2.60;;;9.70;99.90;;;9.88;100.00;100428.31;5154137;28;20507;-79
2023/03/18 05:56:48;;;;;;;4.35;2.38;;;9.80;99.90;;;9.97;100.00;100428.59;5135210;23;20138;-70
2023/03/18 05:59:24;;;;;;;6.22;3.42;;;9.90;99.90;;;10.05;100.00;100427.13;5132912;28;20408;-69
2023/03/18 06:02:01;;;;;;;4.95;3.05;;;10.00;99.90;;;10.15;100.00;100430.00;5119345;28;20395;-68
2023/03/18 06:04:33;;;;;;;6.35;2.95;;;10.00;99.90;;;10.23;100.00;100432.03;5141364;28;20059;-69
2023/03/18 06:07:07;;;;;;;4.82;3.05;;;10.20;99.90;;;10.31;100.00;100440.09;5126191;28;20556;-69
2023/03/18 06:09:39;;;;;;;5.22;3.13;;;10.20;99.90;;;10.39;100.00;100440.34;5139597;28;20412;-69
2023/03/18 06:12:12;;;;;;;5.07;2.83;;;10.30;99.90;;;10.46;100.00;100437.94;5120061;28;20472;-70
2023/03/18 06:14:44;;;;;;;6.53;2.80;;;10.40;99.90;;;10.54;100.00;100448.59;5131173;28;20134;-72
2023/03/18 06:17:17;;;;;;;4.30;2.40;;;10.50;99.90;;;10.59;100.00;100450.50;5117473;28;20134;-69
2023/03/18 06:19:49;;;;;;;6.22;2.58;;;10.60;99.90;;;10.71;100.00;100446.50;5127738;28;20051;-70
2023/03/18 06:22:23;;;;;;;5.63;2.40;;;10.60;99.90;;;11.02;100.00;100453.41;5130496;28;20126;-69
2023/03/18 06:24:56;;;;;;;5.88;2.50;;;10.80;99.90;;;11.53;100.00;100456.53;5140514;28;20536;-70
2023/03/18 06:27:28;;;;;;;7.40;2.40;;;11.20;99.90;;;12.18;100.00;100453.78;5125585;28;20062;-70
2023/03/18 06:30:05;;;;;;;6.82;2.83;;;11.60;99.90;;;13.19;100.00;100458.53;5125261;28;20043;-70
2023/03/18 06:32:40;;;;;;;4.22;2.40;;;12.30;99.90;;;14.57;100.00;100454.69;5117375;28;20412;-70
2023/03/18 06:35:12;;;;;;;3.28;1.65;;;13.40;99.90;;;16.00;100.00;100454.44;5132966;28;20051;-70
2023/03/18 06:37:47;;;;;;;5.32;2.22;;;14.50;99.90;;;17.36;100.00;100461.25;5123239;28;20043;-70
2023/03/18 06:40:21;;;;;;;4.88;2.55;;;15.70;99.90;;;18.42;95.27;100459.47;5114437;28;20052;-70
2023/03/18 06:42:54;;;;;;;2.80;1.65;;;16.70;99.90;;;19.58;88.23;100463.38;5131986;28;20519;-70
2023/03/18 06:45:39;;;;;;;3.33;1.42;;;17.80;99.90;;;20.67;81.92;100460.63;5123961;28;20043;-70
2023/03/18 06:48:13;;;;;;;;;;;18.80;99.90;;;21.65;77.72;100464.59;5121470;28;20268;-70
2023/03/18 06:50:48;;;;;;;3.10;1.48;;;19.70;98.40;;;22.51;72.92;100468.44;5128899;28;20478;-70
2023/03/18 06:53:28;;;;;;;3.92;1.88;;;20.60;94.80;;;23.19;70.74;100476.78;5111889;28;20114;-70
2023/03/18 06:56:02;;;;;;;2.58;1.30;;;21.30;92.50;;;23.90;68.31;100468.91;5108789;28;20042;-70
2023/03/18 06:58:41;;;;;;;3.25;1.58;;;21.90;90.30;;;24.40;65.99;100479.22;5116587;28;20147;-70
2023/03/18 07:01:14;;;;;;;4.70;2.25;;;22.50;85.50;;;24.88;64.34;100484.94;5119626;28;20055;-70
2023/03/18 07:03:50;;;;;;;2.70;1.58;;;22.90;82.30;;;25.35;63.06;100478.22;5114361;28;20059;-59
2023/03/18 07:06:23;;;;;;;2.97;1.40;;;23.40;79.50;;;25.82;60.72;100488.31;5128976;28;20132;-60
2023/03/18 07:08:57;;;;;;;6.03;1.98;;;23.80;76.10;;;26.20;60.09;100485.22;5106222;28;20075;-59
2023/03/18 07:11:30;;;;;;;2.55;1.60;;;24.20;74.80;;;26.60;58.78;100491.00;5113131;28;20433;-59
2023/03/18 07:14:04;;;;;;;3.05;1.25;;;24.60;72.70;;;26.96;57.66;100489.66;5135365;28;20500;-60
2023/03/18 07:16:39;;;;;;;3.30;1.52;;;24.90;70.70;;;27.10;56.20;100494.50;5127068;28;20043;-59
2023/03/18 07:19:11;;;;;;;4.68;1.50;;;25.10;69.00;;;27.24;55.33;100494.84;5119646;28;20135;-59
2023/03/18 07:21:45;;;;;;;3.65;1.60;;;25.30;67.60;;;27.19;55.07;100499.53;5120698;28;20044;-59
2023/03/18 07:24:19;;;;;;;2.85;1.50;;;25.30;66.50;;;27.14;55.75;100506.84;5124690;28;20126;-59
2023/03/18 07:26:52;;;;;;;4.45;1.42;;;25.30;67.00;;;27.20;55.26;100511.97;5115037;28;20047;-58
2023/03/18 07:29:24;;;;;;;5.95;1.63;;;25.30;66.50;;;27.16;54.76;100504.97;5117386;28;20051;-57
2023/03/18 07:31:56;;;;;;;2.60;1.60;;;25.30;65.90;;;27.32;54.79;100515.94;5122969;28;20153;-57
2023/03/18 07:34:28;;;;;;;3.30;1.52;;;25.40;66.20;;;27.52;54.17;100525.91;5122976;28;20420;-57
2023/03/18 07:37:01;;;;;;;5.10;1.60;;;25.50;65.40;;;27.58;53.94;100518.50;5120821;28;20047;-57
2023/03/18 07:39:36;;;;;;;2.63;1.40;;;25.60;65.30;;;27.84;53.10;100525.53;5113047;28;20043;-58
2023/03/18 07:42:08;;;;;;;3.45;1.60;;;25.80;64.50;;;27.32;53.18;100526.66;5112797;28;20055;-57
2023/03/18 07:44:40;;;;;;;3.75;1.50;;;25.50;63.60;;;26.97;54.06;100522.63;5112232;28;20252;-57
2023/03/18 07:47:14;;;;;;;3.22;1.58;;;25.20;64.40;;;26.62;55.02;100529.25;5124827;28;20664;-57
2023/03/18 07:49:46;;;;;;;2.72;1.40;;;24.90;65.10;;;25.93;55.27;100528.91;5116493;28;20059;-58
2023/03/18 07:52:18;;;;;;;5.13;1.70;;;24.40;65.10;;;25.56;56.76;100530.06;5123223;28;20063;-57
2023/03/18 07:54:51;;;;;;;3.10;1.30;;;24.00;66.60;;;25.41;57.23;100533.19;5113716;28;20046;-58
2023/03/18 07:57:23;;;;;;;2.17;1.00;;;23.80;67.20;;;25.05;57.66;100530.69;5118497;28;20048;-59
2023/03/18 07:59:56;;;;;;;3.28;1.50;;;23.50;67.80;;;25.13;57.62;100542.00;5105754;28;20040;-58
2023/03/18 08:02:28;;;;;;;2.55;1.00;;;23.50;68.20;;;25.24;57.77;100543.50;5112472;28;20253;-62
2023/03/18 08:05:00;;;;;;;2.28;1.30;;;23.50;68.40;;;25.33;58.29;100543.22;5125684;28;20054;-62
2023/03/18 08:07:33;;;;;;;2.22;1.25;;;23.50;68.90;;;25.63;57.41;100538.75;5111607;28;20047;-62
2023/03/18 08:10:09;;;;;;;4.25;1.50;;;23.70;68.40;;;25.91;55.77;100531.63;5122545;28;20055;-57
2023/03/18 08:12:41;;;;;;;4.05;1.50;;;23.90;67.00;;;26.02;56.90;100539.31;5108350;28;20079;-57
2023/03/18 08:15:13;;;;;;;3.05;1.67;;;24.00;68.00;;;25.84;55.86;100535.44;5119114;28;20469;-57
2023/03/18 08:17:46;;;;;;;3.38;1.70;;;23.90;66.80;;;25.57;56.21;100547.81;5113181;28;20043;-58
2023/03/18 08:20:18;;;;;;;4.55;1.77;;;23.80;66.90;;;25.02;57.01;100544.06;5115976;28;20463;-55
2023/03/18 08:22:51;;;;;;;3.13;1.35;;;23.50;67.20;;;24.36;57.91;100548.53;5122261;28;20049;-55
2023/03/18 08:25:24;;;;;;;3.05;1.50;;;22.90;67.80;;;23.86;59.59;100548.88;5116126;28;20055;-58
2023/03/18 08:27:57;;;;;;;3.63;1.67;;;22.50;69.10;;;23.42;60.96;100546.31;5116035;28;20047;-58
2023/03/18 08:30:29;;;;;;;3.70;1.52;;;22.20;70.30;;;23.32;61.36;100555.38;5124340;28;20126;-59
2023/03/18 08:33:01;;;;;;;3.70;1.48;;;22.00;71.20;;;23.50;61.32;100562.97;5108923;28;20047;-59
2023/03/18 08:35:34;;;;;;;5.00;1.70;;;22.00;71.50;;;23.85;59.54;100569.28;5108884;28;20051;-57
2023/03/18 08:38:08;;;;;;;2.92;1.70;;;22.20;70.70;;;23.82;60.04;100564.94;5120164;28;20134;-58
2023/03/18 08:40:42;;;;;;;3.45;1.40;;;22.20;70.90;;;23.75;60.17;100565.13;5112078;28;20047;-57
2023/03/18 08:43:14;;;;;;;;;;;22.20;70.70;;;23.81;60.42;100565.84;5130981;28;20110;-58
2023/03/18 08:45:46;;;;;;;17.92;2.42;;;22.20;71.00;;;23.96;59.36;100566.38;5123434;28;19922;-57
2023/03/18 08:48:19;;;;;;;3.38;1.40;;;22.30;70.40;;;23.81;59.58;100564.97;5122880;28;20043;-57
2023/03/18 08:50:52;;;;;;;2.30;1.33;;;22.30;69.80;;;23.33;60.74;100562.44;5107756;28;20054;-57
2023/03/18 08:53:24;;;;;;;2.92;1.42;;;22.00;70.70;;;22.74;62.05;100561.81;5131586;28;20106;-58
2023/03/18 08:55:58;;;;;;;3.35;1.35;;;21.60;71.50;;;22.26;63.44;100559.16;5131531;28;20043;-58
2023/03/18 08:58:30;;;;;;;3.15;1.60;;;21.30;72.90;;;21.79;64.55;100565.19;5124039;28;20047;-58
2023/03/18 09:01:04;;;;;;;3.65;1.50;;;20.80;73.50;;;21.52;65.46;100558.50;5131914;28;20396;-59
2023/03/18 09:03:36;;;;;;;3.22;1.20;;;20.60;74.70;;;21.24;66.43;100545.56;5108753;28;20055;-58
2023/03/18 09:06:08;;;;;;;4.05;0.98;;;20.40;75.60;;;20.89;68.07;100551.28;5115319;28;20066;-58
2023/03/18 09:08:41;;;;;;;2.35;1.02;;;20.10;76.80;;;20.62;69.07;100541.88;5139136;28;20074;-58
2023/03/18 09:11:15;;;;;;;1.83;1.17;;;19.90;77.90;;;20.38;69.84;100540.31;5135772;28;20051;-57
2023/03/18 09:13:47;;;;;;;3.03;1.23;;;19.70;78.80;;;20.16;70.28;100552.88;5134761;28;20049;-58
2023/03/18 09:16:19;;;;;;;3.50;1.25;;;19.50;79.40;;;20.04;71.10;100545.91;5126657;28;20054;-58
2023/03/18 09:18:51;;;;;;;4.97;1.33;;;19.40;80.30;;;19.98;71.30;100553.00;5132429;28;20062;-56
2023/03/18 09:21:23;;;;;;;3.97;1.50;;;19.30;80.80;;;19.95;71.31;100547.72;5142414;28;20522;-56
2023/03/18 09:23:55;;;;;;;2.45;1.50;;;19.30;81.00;;;19.88;71.87;100552.19;5133916;28;20408;-56
2023/03/18 09:26:28;;;;;;;2.05;1.20;;;19.30;81.80;;;19.83;71.48;100550.47;5129702;28;20085;-57
2023/03/18 09:29:00;;;;;;;2.38;1.10;;;19.20;81.70;;;19.78;72.26;100555.78;5123879;28;20223;-57
2023/03/18 09:31:32;;;;;;;3.10;1.23;;;19.20;82.60;;;19.79;71.78;100552.25;5133247;28;20155;-53
2023/03/18 09:34:04;;;;;;;1.88;1.20;;;19.20;82.60;;;19.73;71.39;100547.88;5127606;28;20043;-54
2023/03/18 09:36:37;;;;;;;2.30;1.38;;;19.10;82.10;;;19.62;71.46;100552.34;5128746;28;20515;-55
2023/03/18 09:39:09;;;;;;;2.58;1.00;;;19.10;82.20;;;19.54;72.41;100556.78;5124924;28;20051;-54
2023/03/18 09:41:58;;;;;;;2.33;1.20;;;19.00;83.20;;;19.58;73.58;100550.63;5133472;28;20045;-55
2023/03/18 09:44:33;;;;;;;3.45;1.30;;;19.00;84.70;;;19.72;73.08;100551.41;5134276;28;20050;-54
2023/03/18 09:47:33;;;;;;;3.13;1.10;;;19.00;84.90;;;19.72;72.42;100540.84;5137095;28;20480;-53
2023/03/18 09:50:20;;;;;;;2.83;1.08;;;19.10;84.50;;;19.66;72.71;100540.00;5133573;28;20036;-54
2023/03/18 09:53:04;;;;;;;1.95;1.17;;;19.00;84.60;;;19.58;72.42;100550.63;5142250;28;20097;-53
2023/03/18 09:55:45;;;;;;;2.28;1.20;;;19.00;84.70;;;19.53;73.12;100549.72;5137437;28;20047;-55
2023/03/18 09:58:23;;;;;;;;;;;19.00;85.30;;;19.63;74.19;100553.25;5133202;28;20188;-54
2023/03/18 10:01:01;;;;;;;2.08;1.10;;;19.00;86.50;;;19.68;74.08;100554.94;5135126;28;19953;-54
2023/03/18 10:03:41;;;;;;;1.85;1.10;;;19.10;86.80;;;19.78;74.28;100556.66;5136496;28;20043;-54
2023/03/18 10:06:17;;;;;;;1.67;1.00;;;19.10;87.20;;;19.90;74.02;100545.13;5128492;28;20074;-54
2023/03/18 10:08:59;;;;;;;3.28;1.35;;;19.20;87.30;;;20.01;73.15;100545.91;5136959;28;20398;-54
2023/03/18 10:11:37;;;;;;;1.38;0.85;;;19.30;86.70;;;20.08;72.34;100540.56;5136745;28;20102;-53
2023/03/18 10:14:28;;;;;;;1.92;0.88;;;19.40;86.00;;;20.10;72.54;100542.31;5133391;28;20051;-55
2023/03/18 10:17:13;;;;;;;3.00;1.25;;;19.40;86.00;;;20.17;71.91;100549.31;5126893;28;20411;-53
2023/03/18 10:19:49;;;;;;;1.80;1.10;;;19.50;85.60;;;20.27;70.84;100545.69;5127929;28;20050;-54
2023/03/18 10:23:03;;;;;;;2.05;0.90;;;19.60;84.60;;;20.41;69.98;100548.25;5134931;28;20122;-55
2023/03/18 10:25:40;;;;;;;1.85;1.00;;;19.70;83.90;;;20.63;69.74;100538.34;5135677;28;20070;-54
2023/03/18 10:28:48;;;;;;;2.22;0.90;;;19.90;83.50;;;20.88;68.28;100538.94;5139917;28;20047;-55
2023/03/18 10:31:36;;;;;;;1.92;1.02;;;20.10;82.30;;;20.94;68.16;100532.72;5139562;28;20077;-57
2023/03/18 10:34:14;;;;;;;1.77;0.95;;;20.20;81.40;;;20.94;68.41;100527.41;5127251;28;20091;-57
2023/03/18 10:36:51;;;;;;;1.60;1.00;;;20.20;81.50;;;20.97;68.38;100543.25;5141557;28;20087;-55
2023/03/18 10:39:27;;;;;;;2.45;1.02;;;20.20;81.30;;;20.92;68.03;100539.78;5145498;28;20054;-55
2023/03/18 10:42:07;;;;;;;2.50;1.10;;;20.20;80.70;;;20.79;66.78;100534.59;5130393;28;20047;-57
2023/03/18 10:44:40;;;;;;;;;;;20.20;79.20;;;20.72;67.40;100538.22;5145721;28;20057;-58